McRaney, Mississippi
Current Conditions -  °F | °C
As of 2:55 PM on Tuesday 25 Nov 2014 (Local Time) from KPIB Reporting Station
Few Clouds Few Clouds  
Wind Chill: 54°   Ceiling: Unl
Heat Index: 54°   Visibility: 10mi
Dew Point: 30°   Wind: 8mph
Humidity: 41%   Direction: 320°NW
Pressure: 30.14"   Gusts: NA
Location:  31.6692°N, 89.543°W
Report Text: KPIB 252055Z AUTO 32007KT 300V360 10SM FEW120 12/M01 A3014 RMK AO1 57010
Loading
Personal Weather Stations






























Interactive Weather Map New forecast layout! Learn more

10-Day Weather Forecast

Advertisements
Track Severe Weather on mobile